WetterOnline ( https://www.wetteronline.de )

Wetter aktuell Aachen

Aktuelles Wetter: Aachen-Orsbach (231m)

6-stündlich | Neueste Meldungen
Ortszeit Temperatur Wetter
Mi, 24.04. 8:00 3.3° C bedeckt
Mi, 24.04. 2:00 4.5° C Regen
Di, 23.04. 20:00 7.0° C wolkig
Di, 23.04. 14:00 8.2° C wolkig
Di, 23.04. 8:00 0.6° C wolkenlos
Di, 23.04. 2:00 1.2° C leicht bewölkt
Mo, 22.04. 20:00 4.5° C leicht bewölkt
Mo, 22.04. 14:00 8.2° C bewölkt
Ortszeit Temperatur Wetter
Mi, 24.04. 11:00 4.4° C bedeckt
Mi, 24.04. 10:50 4.4° C bedeckt
Mi, 24.04. 10:40 4.2° C bewölkt
Mi, 24.04. 10:30 2.8° C bewölkt
Mi, 24.04. 10:20 2.8° C bewölkt
Mi, 24.04. 10:10 2.7° C bedeckt
Mi, 24.04. 10:00 4.1° C leichter Regen
Mi, 24.04. 9:30 4.6° C bewölkt
Mi, 24.04. 9:00 4.2° C bewölkt
Mi, 24.04. 8:30 3.6° C bedeckt
Mi, 24.04. 8:00 3.3° C bedeckt
Ortszeit Relative Feuchte Sichtweite
Mi, 24.04. 8:00 96% 26 km
Mi, 24.04. 2:00 97% 12 km
Di, 23.04. 20:00 60% 60 km
Di, 23.04. 14:00 51% 60 km
Di, 23.04. 8:00 87% 15 km
Di, 23.04. 2:00 86% 35 km
Mo, 22.04. 20:00 79% >70 km
Mo, 22.04. 14:00 52% -
Ortszeit Relative Feuchte Sichtweite
Mi, 24.04. 11:00 90% 55 km
Mi, 24.04. 10:50 90% -
Mi, 24.04. 10:40 90% -
Mi, 24.04. 10:30 95% >70 km
Mi, 24.04. 10:20 95% -
Mi, 24.04. 10:10 92% -
Mi, 24.04. 10:00 86% 45 km
Mi, 24.04. 9:30 87% 45 km
Mi, 24.04. 9:00 91% 30 km
Mi, 24.04. 8:30 95% 29 km
Mi, 24.04. 8:00 96% 26 km
Ortszeit Niederschlagsmenge Niederschlagsart
Mi, 24.04. 8:00 3 l/m2 in 12 Std. Regen
Mi, 24.04. 2:00 1 l/m2 in 6 Std. Regen
Di, 23.04. 20:00 0.1 l/m2 in 12 Std. -
Di, 23.04. 14:00 0.0 l/m2 in 6 Std. -
Di, 23.04. 8:00 0.2 l/m2 in 12 Std. -
Di, 23.04. 2:00 0.2 l/m2 in 6 Std. Regen
Mo, 22.04. 20:00 0.1 l/m2 in 3 Std. Regen
Mo, 22.04. 14:00 keine Meldung -
Ortszeit Niederschlagsmenge Niederschlagsart
Mi, 24.04. 11:00 0.1 l/m2 in 1 Std. Regen
Mi, 24.04. 10:50 keine Meldung -
Mi, 24.04. 10:40 keine Meldung -
Mi, 24.04. 10:30 <0.05 l/m2 in 30 Min Schneeregen
Mi, 24.04. 10:20 keine Meldung -
Mi, 24.04. 10:10 keine Meldung -
Mi, 24.04. 10:00 <0.05 l/m2 in 1 Std. Regen
Mi, 24.04. 9:30 0.0 l/m2 in 30 Min -
Mi, 24.04. 9:00 <0.05 l/m2 in 1 Std. Regen
Mi, 24.04. 8:30 <0.05 l/m2 in 30 Min Schneeregen
Mi, 24.04. 8:00 <0.05 l/m2 in 1 Std. Regen
Ortszeit Stärke Spitze Richtung
km/h Bft. km/h Grad Sektor
Mi, 24.04. 8:00 18 3 36 270° W
Mi, 24.04. 2:00 17 3 33 270° W
Di, 23.04. 20:00 15 3 26 270° W
Di, 23.04. 14:00 7 2 18 310° NW
Di, 23.04. 8:00 4 1 11 220° SW
Di, 23.04. 2:00 6 1 24 270° W
Mo, 22.04. 20:00 6 1 46 80° O
Mo, 22.04. 14:00 11 2 - 20° N
Ortszeit Stärke Spitze Richtung
km/h Bft. km/h Grad Sektor
Mi, 24.04. 11:00 17 3 37 270° W
Mi, 24.04. 10:50 17 3 - 270° W
Mi, 24.04. 10:40 18 3 - 270° W
Mi, 24.04. 10:30 18 3 36 270° W
Mi, 24.04. 10:20 18 3 - 270° W
Mi, 24.04. 10:10 22 4 - 270° W
Mi, 24.04. 10:00 22 4 33 280° W
Mi, 24.04. 9:30 22 4 29 270° W
Mi, 24.04. 9:00 20 4 30 270° W
Mi, 24.04. 8:30 18 3 25 270° W
Mi, 24.04. 8:00 18 3 22 270° W
Ortszeit Untergrenze Bedeckung Gattung
total tief tief mittel hoch
Mi, 24.04. 8:00 240 m 8/8 8/8 - - -
Mi, 24.04. 2:00 180 m 8/8 8/8 - - -
Di, 23.04. 20:00 1500 m 6/8 6/8 - - -
Di, 23.04. 14:00 1500 m 7/8 3/8 - - -
Di, 23.04. 8:00 - 0/8 0/8 - - -
Di, 23.04. 2:00 1500 m 2/8 2/8 - - -
Mo, 22.04. 20:00 1200 m 3/8 3/8 - - -
Mo, 22.04. 14:00 - 7/8 - - - -
Ortszeit Bedeckungsgrad in Achtel und Wolkenuntergrenze
Mi, 24.04. 11:00 1(240m) 7(2100m) 8(2400m)
Mi, 24.04. 10:50 1(240m) 7(2100m) 8(2400m)
Mi, 24.04. 10:40 7
Mi, 24.04. 10:30 2(180m) 5(1500m) 7(2100m)
Mi, 24.04. 10:20 2(180m) 5(1500m) 7(2100m)
Mi, 24.04. 10:10 8
Mi, 24.04. 10:00 2(390m) 7(1800m) 8(2100m)
Mi, 24.04. 9:30 4(270m) 7(1020m) 7(1800m)
Mi, 24.04. 9:00 3(270m) 7(1170m) 7(1800m)
Mi, 24.04. 8:30 1(210m) 5(1500m) 8(2100m)
Mi, 24.04. 8:00 5(240m) 6(1320m) 8(1800m)
Ortszeit Luftdruck NN (hPa) Tendenz (hPa in 3 Std.)
Mi, 24.04. 8:00 1012 - 1,0
Mi, 24.04. 2:00 1014 - 1,4
Di, 23.04. 20:00 1017 - 1,6
Di, 23.04. 14:00 1019 - 1,7
Di, 23.04. 8:00 1022 0,0
Di, 23.04. 2:00 1023 - 0,7
Mo, 22.04. 20:00 1023 - 0,3
Mo, 22.04. 14:00 1024 - 1,4
Ortszeit Luftdruck NN (hPa) Tendenz (hPa in 3 Std.)
Mi, 24.04. 11:00 1011 - 0,6
Mi, 24.04. 10:50 1011 keine Meldung
Mi, 24.04. 10:40 1011 keine Meldung
Mi, 24.04. 10:30 1011 - 0,7
Mi, 24.04. 10:20 1011 keine Meldung
Mi, 24.04. 10:10 1011 keine Meldung
Mi, 24.04. 10:00 1011 - 0,9
Mi, 24.04. 9:30 1011 - 1,0
Mi, 24.04. 9:00 1011 - 0,8
Mi, 24.04. 8:30 1012 - 0,8
Mi, 24.04. 8:00 1012 - 1,0
Ortszeit Schneehöhe (cm)
Mi, 24.04. 8:00 0
Mi, 24.04. 2:00 0
Di, 23.04. 20:00 0
Di, 23.04. 14:00 0
Di, 23.04. 8:00 0
Di, 23.04. 2:00 0
Mo, 22.04. 20:00 0
Mo, 22.04. 14:00 -
Ortszeit Schneehöhe (cm)
Mi, 24.04. 11:00 0
Mi, 24.04. 10:50 0
Mi, 24.04. 10:40 -
Mi, 24.04. 10:30 0
Mi, 24.04. 10:20 0
Mi, 24.04. 10:10 -
Mi, 24.04. 10:00 0
Mi, 24.04. 9:30 0
Mi, 24.04. 9:00 0
Mi, 24.04. 8:30 0
Mi, 24.04. 8:00 0
Link zu dieser Seite / Seite empfehlen

Das Wetter in ...